createdAt,value
2018-11-22T00:00:08.129Z,47.19
2018-11-22T00:01:08.121Z,47.19
2018-11-22T00:02:08.140Z,46.89
2018-11-22T00:03:08.096Z,46.69
2018-11-22T00:04:08.085Z,46.77
2018-11-22T00:05:08.073Z,46.69
2018-11-22T00:06:08.062Z,47.30
2018-11-22T00:07:08.078Z,47.09
2018-11-22T00:08:08.045Z,46.80
2018-11-22T00:09:08.028Z,46.80
2018-11-22T00:10:08.059Z,47.30
2018-11-22T00:11:08.007Z,47.30
2018-11-22T00:12:07.994Z,46.89
2018-11-22T00:13:07.987Z,46.69
2018-11-22T00:14:07.975Z,47.09
2018-11-22T00:15:07.996Z,47.09
2018-11-22T00:16:07.949Z,47.09
2018-11-22T00:17:07.938Z,46.89
2018-11-22T00:18:07.925Z,46.67
2018-11-22T00:19:07.924Z,47.30
2018-11-22T00:20:07.930Z,46.89
2018-11-22T00:21:07.916Z,46.80
2018-11-22T00:22:07.881Z,46.39
2018-11-22T00:23:07.868Z,47.09
2018-11-22T00:24:07.859Z,46.69
2018-11-22T00:25:07.883Z,46.69
2018-11-22T00:26:07.838Z,47.27
2018-11-22T00:27:07.823Z,47.19
2018-11-22T00:28:07.812Z,47.30
2018-11-22T00:29:07.802Z,46.69
2018-11-22T00:30:07.818Z,46.80
2018-11-22T00:31:07.780Z,46.80
2018-11-22T00:32:07.768Z,46.89
2018-11-22T00:33:07.780Z,46.69
2018-11-22T00:34:07.745Z,46.80
2018-11-22T00:35:07.735Z,46.59
2018-11-22T00:36:07.749Z,46.69
2018-11-22T00:37:07.716Z,46.80
2018-11-22T00:38:07.699Z,46.67
2018-11-22T00:39:07.689Z,47.30
2018-11-22T00:40:07.686Z,47.30
2018-11-22T00:41:07.690Z,47.30
2018-11-22T00:42:07.680Z,47.30
2018-11-22T00:43:07.644Z,46.69
2018-11-22T00:44:07.633Z,46.89
2018-11-22T00:45:07.623Z,46.69
2018-11-22T00:46:07.642Z,47.30
2018-11-22T00:47:07.598Z,46.69
2018-11-22T00:48:07.588Z,46.69
2018-11-22T00:49:07.580Z,46.69
2018-11-22T00:50:07.564Z,46.89
2018-11-22T00:51:07.594Z,46.77
2018-11-22T00:52:07.542Z,46.67
2018-11-22T00:53:07.531Z,47.30
2018-11-22T00:54:07.524Z,47.39
2018-11-22T00:55:07.512Z,46.69
2018-11-22T00:56:07.521Z,46.77
2018-11-22T00:57:07.485Z,46.89
2018-11-22T00:58:07.500Z,46.69
2018-11-22T00:59:07.463Z,47.30
2018-11-22T01:00:07.453Z,46.80
2018-11-22T01:01:07.440Z,46.59
2018-11-22T01:02:07.448Z,46.89
2018-11-22T01:03:07.459Z,46.80
2018-11-22T01:04:07.408Z,46.80
2018-11-22T01:05:07.401Z,47.39
2018-11-22T01:06:07.391Z,46.39
2018-11-22T01:07:07.373Z,46.69
2018-11-22T01:08:07.393Z,46.87
2018-11-22T01:09:07.351Z,46.39
2018-11-22T01:10:07.338Z,46.89
2018-11-22T01:11:07.330Z,46.39
2018-11-22T01:12:07.324Z,46.69
2018-11-22T01:13:07.341Z,46.69
2018-11-22T01:14:07.293Z,47.09
2018-11-22T01:15:07.283Z,46.80
2018-11-22T01:16:07.270Z,47.30
2018-11-22T01:17:07.265Z,46.69
2018-11-22T01:18:07.270Z,46.80
2018-11-22T01:19:07.235Z,46.39
2018-11-22T01:20:07.226Z,46.59
2018-11-22T01:21:07.213Z,46.39
2018-11-22T01:22:07.202Z,46.80
2018-11-22T01:23:07.219Z,47.39
2018-11-22T01:24:07.180Z,46.80
2018-11-22T01:25:07.168Z,46.80
2018-11-22T01:26:07.156Z,46.80
2018-11-22T01:27:07.149Z,46.80
2018-11-22T01:28:07.168Z,46.80
2018-11-22T01:29:07.125Z,46.80
2018-11-22T01:30:07.132Z,46.80
2018-11-22T01:31:07.100Z,46.69
2018-11-22T01:32:07.089Z,46.59
2018-11-22T01:33:07.110Z,46.77
2018-11-22T01:34:07.070Z,46.69
2018-11-22T01:35:07.059Z,46.80
2018-11-22T01:36:07.044Z,46.59
2018-11-22T01:37:07.032Z,46.59
2018-11-22T01:38:07.055Z,46.80
2018-11-22T01:39:07.012Z,46.59
2018-11-22T01:40:06.999Z,46.59
2018-11-22T01:41:06.992Z,47.30
2018-11-22T01:42:06.980Z,46.69
2018-11-22T01:43:06.990Z,46.59
2018-11-22T01:44:06.987Z,46.59
2018-11-22T01:45:06.942Z,46.80
2018-11-22T01:46:06.932Z,46.80
2018-11-22T01:47:06.919Z,46.80
2018-11-22T01:48:06.911Z,46.80
2018-11-22T01:49:06.935Z,46.69
2018-11-22T01:50:06.886Z,46.80
2018-11-22T01:51:06.875Z,46.80
2018-11-22T01:52:06.865Z,47.50
2018-11-22T01:53:06.856Z,46.80
2018-11-22T01:54:06.864Z,46.57
2018-11-22T01:55:06.858Z,46.59
2018-11-22T01:56:06.818Z,46.59
2018-11-22T01:57:06.832Z,46.59
2018-11-22T01:58:13.485Z,46.59
2018-11-22T01:59:06.789Z,46.59
2018-11-22T02:00:06.800Z,46.80
2018-11-22T02:01:06.790Z,46.49
2018-11-22T02:02:06.748Z,46.69
2018-11-22T02:03:06.741Z,47.39
2018-11-22T02:04:06.730Z,46.59
2018-11-22T02:05:06.744Z,46.59
2018-11-22T02:06:06.705Z,46.59
2018-11-22T02:07:06.693Z,46.80
2018-11-22T02:08:06.704Z,46.59
2018-11-22T02:09:06.672Z,46.89
2018-11-22T02:10:06.659Z,46.77
2018-11-22T02:11:06.647Z,46.80
2018-11-22T02:12:06.638Z,46.80
2018-11-22T02:13:06.657Z,46.59
2018-11-22T02:14:06.656Z,46.59
2018-11-22T02:15:06.601Z,46.59
2018-11-22T02:16:06.590Z,46.49
2018-11-22T02:17:06.579Z,46.80
2018-11-22T02:18:06.568Z,46.49
2018-11-22T02:19:06.602Z,46.59
2018-11-22T02:20:06.551Z,46.77
2018-11-22T02:21:06.533Z,46.59
2018-11-22T02:22:06.523Z,46.59
2018-11-22T02:23:06.518Z,46.69
2018-11-22T02:24:06.538Z,46.59
2018-11-22T02:25:06.489Z,46.59
2018-11-22T02:26:06.482Z,46.37
2018-11-22T02:27:06.467Z,46.59
2018-11-22T02:28:06.456Z,46.59
2018-11-22T02:29:06.468Z,46.59
2018-11-22T02:30:06.433Z,46.80
2018-11-22T02:31:06.421Z,46.59
2018-11-22T02:32:06.438Z,46.80
2018-11-22T02:33:06.402Z,46.49
2018-11-22T02:34:06.387Z,46.59
2018-11-22T02:35:06.376Z,46.49
2018-11-22T02:36:06.382Z,46.59
2018-11-22T02:37:06.357Z,46.49
2018-11-22T02:38:06.344Z,46.59
2018-11-22T02:39:06.332Z,46.59
2018-11-22T02:40:06.319Z,46.69
2018-11-22T02:41:06.339Z,46.69
2018-11-22T02:42:06.296Z,46.59
2018-11-22T02:43:06.316Z,46.59
2018-11-22T02:44:06.275Z,46.59
2018-11-22T02:45:06.266Z,46.80
2018-11-22T02:46:06.252Z,46.69
2018-11-22T02:47:06.240Z,46.57
2018-11-22T02:48:06.255Z,46.47
2018-11-22T02:49:06.219Z,46.47
2018-11-22T02:50:06.209Z,46.69
2018-11-22T02:51:06.198Z,46.89
2018-11-22T02:52:06.187Z,46.59
2018-11-22T02:53:06.209Z,46.59
2018-11-22T02:54:06.167Z,46.59
2018-11-22T02:55:06.152Z,46.59
2018-11-22T02:56:06.138Z,46.57
2018-11-22T02:57:06.127Z,46.59
2018-11-22T02:58:06.150Z,46.69
2018-11-22T02:59:06.105Z,46.59
2018-11-22T03:00:06.096Z,46.59
2018-11-22T03:01:06.083Z,46.80
2018-11-22T03:02:06.070Z,47.00
2018-11-22T03:03:06.095Z,46.89
2018-11-22T03:04:06.052Z,46.59
2018-11-22T03:05:06.037Z,47.09
2018-11-22T03:06:06.029Z,46.67
2018-11-22T03:07:06.014Z,46.59
2018-11-22T03:08:06.032Z,46.69
2018-11-22T03:09:05.992Z,46.80
2018-11-22T03:10:05.980Z,47.00
2018-11-22T03:11:05.997Z,46.59
2018-11-22T03:12:05.958Z,46.80
2018-11-22T03:13:05.979Z,47.00
2018-11-22T03:14:05.940Z,46.89
2018-11-22T03:15:05.926Z,47.00
2018-11-22T03:16:05.916Z,46.89
2018-11-22T03:17:05.909Z,46.67
2018-11-22T03:18:05.917Z,46.89
2018-11-22T03:19:05.878Z,46.87
2018-11-22T03:20:05.871Z,46.69
2018-11-22T03:21:05.857Z,46.57
2018-11-22T03:22:05.880Z,46.89
2018-11-22T03:23:05.842Z,47.00
2018-11-22T03:24:05.826Z,46.69
2018-11-22T03:25:05.836Z,47.00
2018-11-22T03:26:05.803Z,46.89
2018-11-22T03:27:05.817Z,46.89
2018-11-22T03:28:05.781Z,46.59
2018-11-22T03:29:05.769Z,46.89
2018-11-22T03:30:05.754Z,46.89
2018-11-22T03:31:05.747Z,47.09
2018-11-22T03:32:05.758Z,47.00
2018-11-22T03:33:05.723Z,47.09
2018-11-22T03:34:05.719Z,46.59
2018-11-22T03:35:05.704Z,47.00
2018-11-22T03:36:05.721Z,46.69
2018-11-22T03:37:05.675Z,46.89
2018-11-22T03:38:05.664Z,47.00
2018-11-22T03:39:05.660Z,46.89
2018-11-22T03:40:05.641Z,46.69
2018-11-22T03:41:05.656Z,47.00
2018-11-22T03:42:05.645Z,46.69
2018-11-22T03:43:05.606Z,47.00
2018-11-22T03:44:05.597Z,46.69
2018-11-22T03:45:05.610Z,47.00
2018-11-22T03:46:05.574Z,47.00
2018-11-22T03:47:05.587Z,47.09
2018-11-22T03:48:05.552Z,47.00
2018-11-22T03:49:05.539Z,47.00
2018-11-22T03:50:05.530Z,46.59
2018-11-22T03:51:05.543Z,46.97
2018-11-22T03:52:05.538Z,47.00
2018-11-22T03:53:05.495Z,47.00
2018-11-22T03:54:05.486Z,47.00
2018-11-22T03:55:05.474Z,46.69
2018-11-22T03:56:05.480Z,46.69
2018-11-22T03:57:05.483Z,47.00
2018-11-22T03:58:05.439Z,47.00
2018-11-22T03:59:05.430Z,47.00
2018-11-22T04:00:05.416Z,47.00
2018-11-22T04:01:05.412Z,47.09
2018-11-22T04:02:05.417Z,47.09
2018-11-22T04:03:05.415Z,46.89
2018-11-22T04:04:05.376Z,46.69
2018-11-22T04:05:05.359Z,47.00
2018-11-22T04:06:05.352Z,47.00
2018-11-22T04:07:05.338Z,46.69
2018-11-22T04:08:05.354Z,47.09
2018-11-22T04:09:05.339Z,46.89
2018-11-22T04:10:05.345Z,47.00
2018-11-22T04:11:05.300Z,47.09
2018-11-22T04:12:05.282Z,46.69
2018-11-22T04:13:05.268Z,47.00
2018-11-22T04:14:05.256Z,46.89
2018-11-22T04:15:05.283Z,46.89
2018-11-22T04:16:05.239Z,47.09
2018-11-22T04:17:05.228Z,47.09
2018-11-22T04:18:05.211Z,47.00
2018-11-22T04:19:05.201Z,47.00
2018-11-22T04:20:05.215Z,47.00
2018-11-22T04:21:05.208Z,47.09
2018-11-22T04:22:05.170Z,47.00
2018-11-22T04:23:05.156Z,46.80
2018-11-22T04:24:05.144Z,47.00
2018-11-22T04:25:05.132Z,47.00
2018-11-22T04:26:05.157Z,47.00
2018-11-22T04:27:05.110Z,47.30
2018-11-22T04:28:05.099Z,47.09
2018-11-22T04:29:05.086Z,47.09
2018-11-22T04:30:05.075Z,47.00
2018-11-22T04:31:05.099Z,47.00
2018-11-22T04:32:05.063Z,46.69
2018-11-22T04:33:05.052Z,47.09
2018-11-22T04:34:05.033Z,47.00
2018-11-22T04:35:05.021Z,47.00
2018-11-22T04:36:05.043Z,47.19
2018-11-22T04:37:04.999Z,46.69
2018-11-22T04:38:04.988Z,47.09
2018-11-22T04:39:04.988Z,46.89
2018-11-22T04:40:04.963Z,47.00
2018-11-22T04:41:04.993Z,47.00
2018-11-22T04:42:04.940Z,47.00
2018-11-22T04:43:04.931Z,46.89
2018-11-22T04:44:04.928Z,47.00
2018-11-22T04:45:04.920Z,46.80
2018-11-22T04:46:04.925Z,47.09
2018-11-22T04:47:04.884Z,47.30
2018-11-22T04:48:04.874Z,47.00
2018-11-22T04:49:04.861Z,46.89
2018-11-22T04:50:04.852Z,47.00
2018-11-22T04:51:04.864Z,46.69
2018-11-22T04:52:04.830Z,47.09
2018-11-22T04:53:04.843Z,47.19
2018-11-22T04:54:04.804Z,47.09
2018-11-22T04:55:04.796Z,47.00
2018-11-22T04:56:04.784Z,47.00
2018-11-22T04:57:04.772Z,47.00
2018-11-22T04:58:04.787Z,47.19
2018-11-22T04:59:04.748Z,46.89
2018-11-22T05:00:04.736Z,46.69
2018-11-22T05:01:04.729Z,47.19
2018-11-22T05:02:04.714Z,47.00
2018-11-22T05:03:04.727Z,47.19
2018-11-22T05:04:04.696Z,46.69
2018-11-22T05:05:04.680Z,47.00
2018-11-22T05:06:04.669Z,47.00
2018-11-22T05:07:04.659Z,47.19
2018-11-22T05:08:04.678Z,47.00
2018-11-22T05:09:04.637Z,47.30
2018-11-22T05:10:04.628Z,46.80
2018-11-22T05:11:04.612Z,47.00
2018-11-22T05:12:04.602Z,47.30
2018-11-22T05:13:04.614Z,47.00
2018-11-22T05:14:04.579Z,47.19
2018-11-22T05:15:04.592Z,46.89
2018-11-22T05:16:04.555Z,47.19
2018-11-22T05:17:04.546Z,46.69
2018-11-22T05:18:04.559Z,47.00
2018-11-22T05:19:04.521Z,47.30
2018-11-22T05:20:04.512Z,47.09
2018-11-22T05:21:04.499Z,47.00
2018-11-22T05:22:04.491Z,47.30
2018-11-22T05:23:04.506Z,47.19
2018-11-22T05:24:04.468Z,46.69
2018-11-22T05:25:04.458Z,47.00
2018-11-22T05:26:04.447Z,47.00
2018-11-22T05:27:04.434Z,47.00
2018-11-22T05:28:04.469Z,47.30
2018-11-22T05:29:04.412Z,47.00
2018-11-22T05:30:04.408Z,47.00
2018-11-22T05:31:04.386Z,47.00
2018-11-22T05:32:04.379Z,46.89
2018-11-22T05:33:04.392Z,47.30
2018-11-22T05:34:04.365Z,47.30
2018-11-22T05:35:04.356Z,47.30
2018-11-22T05:36:04.332Z,47.00
2018-11-22T05:37:04.343Z,47.19
2018-11-22T05:38:04.305Z,47.19
2018-11-22T05:39:04.326Z,46.89
2018-11-22T05:40:04.283Z,47.22
2018-11-22T05:41:04.273Z,47.30
2018-11-22T05:42:04.294Z,47.00
2018-11-22T05:43:04.249Z,47.30
2018-11-22T05:44:04.269Z,46.80
2018-11-22T05:45:04.257Z,47.00
2018-11-22T05:46:04.215Z,46.80
2018-11-22T05:47:04.206Z,46.69
2018-11-22T05:48:04.200Z,46.80
2018-11-22T05:49:04.188Z,46.89
2018-11-22T05:50:04.209Z,47.00
2018-11-22T05:51:04.162Z,46.89
2018-11-22T05:52:04.148Z,47.00
2018-11-22T05:53:04.139Z,47.39
2018-11-22T05:54:04.133Z,47.00
2018-11-22T05:55:04.138Z,46.69
2018-11-22T05:56:04.104Z,47.00
2018-11-22T05:57:04.115Z,46.89
2018-11-22T05:58:04.082Z,47.19
2018-11-22T05:59:04.079Z,47.19
2018-11-22T06:00:04.058Z,47.00
2018-11-22T06:01:04.048Z,46.92
2018-11-22T06:02:04.069Z,46.80
2018-11-22T06:03:04.027Z,46.80
2018-11-22T06:04:04.013Z,46.89
2018-11-22T06:05:04.001Z,46.69
2018-11-22T06:06:03.993Z,46.69
2018-11-22T06:07:04.011Z,47.30
2018-11-22T06:08:03.968Z,47.00
2018-11-22T06:09:03.955Z,46.72
2018-11-22T06:10:03.947Z,47.30
2018-11-22T06:11:03.939Z,46.89
2018-11-22T06:12:03.955Z,46.89
2018-11-22T06:13:03.911Z,46.80
2018-11-22T06:14:03.924Z,47.00
2018-11-22T06:15:03.888Z,47.00
2018-11-22T06:16:03.882Z,46.69
2018-11-22T06:17:03.865Z,47.00
2018-11-22T06:18:03.856Z,47.00
2018-11-22T06:19:03.870Z,47.00
2018-11-22T06:20:03.833Z,47.00
2018-11-22T06:21:03.820Z,47.30
2018-11-22T06:22:03.827Z,46.80
2018-11-22T06:23:03.799Z,47.00
2018-11-22T06:24:03.811Z,47.00
2018-11-22T06:25:03.869Z,47.00
2018-11-22T06:26:03.766Z,47.39
2018-11-22T06:27:03.754Z,47.00
2018-11-22T06:28:03.741Z,46.89
2018-11-22T06:29:03.763Z,47.00
2018-11-22T06:30:03.722Z,46.89
2018-11-22T06:31:06.303Z,46.80
2018-11-22T06:32:03.699Z,47.00
2018-11-22T06:33:03.683Z,47.09
2018-11-22T06:34:03.707Z,47.00
2018-11-22T06:35:03.661Z,46.89
2018-11-22T06:36:03.651Z,46.80
2018-11-22T06:37:03.638Z,47.30
2018-11-22T06:38:03.629Z,47.09
2018-11-22T06:39:03.660Z,47.30
2018-11-22T06:40:03.604Z,46.89
2018-11-22T06:41:03.594Z,46.89
2018-11-22T06:42:03.585Z,46.92
2018-11-22T06:43:03.571Z,47.00
2018-11-22T06:44:03.586Z,46.89
2018-11-22T06:45:03.554Z,46.80
2018-11-22T06:46:03.538Z,46.69
2018-11-22T06:47:03.551Z,47.00
2018-11-22T06:48:03.515Z,47.00
2018-11-22T06:49:03.501Z,46.92
2018-11-22T06:50:03.516Z,46.89
2018-11-22T06:51:03.484Z,47.00
2018-11-22T06:52:03.503Z,47.00
2018-11-22T06:53:03.460Z,47.09
2018-11-22T06:54:03.446Z,47.09
2018-11-22T06:55:03.432Z,47.00
2018-11-22T06:56:03.428Z,46.89
2018-11-22T06:57:03.443Z,47.00
2018-11-22T06:58:03.400Z,46.89
2018-11-22T06:59:03.388Z,47.39
2018-11-22T07:00:03.376Z,46.80
2018-11-22T07:01:03.365Z,46.80
2018-11-22T07:02:03.386Z,47.00
2018-11-22T07:03:03.349Z,46.80
2018-11-22T07:04:03.336Z,46.89
2018-11-22T07:05:03.336Z,47.00
2018-11-22T07:06:03.345Z,47.00
2018-11-22T07:07:03.332Z,46.89
2018-11-22T07:08:03.286Z,46.89
2018-11-22T07:09:03.308Z,47.39
2018-11-22T07:10:03.268Z,47.00
2018-11-22T07:11:03.259Z,47.00
2018-11-22T07:12:03.244Z,47.02
2018-11-22T07:13:03.237Z,47.00
2018-11-22T07:14:03.249Z,47.00
2018-11-22T07:15:03.209Z,47.00
2018-11-22T07:16:03.197Z,47.00
2018-11-22T07:17:03.186Z,46.69
2018-11-22T07:18:03.172Z,47.00
2018-11-22T07:19:03.218Z,47.00
2018-11-22T07:20:03.177Z,47.00
2018-11-22T07:21:03.142Z,46.59
2018-11-22T07:22:03.131Z,47.00
2018-11-22T07:23:03.116Z,46.89
2018-11-22T07:24:03.105Z,47.00
2018-11-22T07:25:03.126Z,47.00
2018-11-22T07:26:03.081Z,47.09
2018-11-22T07:27:03.265Z,47.09
2018-11-22T07:28:03.063Z,46.89
2018-11-22T07:29:03.048Z,46.69
2018-11-22T07:30:03.085Z,46.59
2018-11-22T07:31:03.037Z,46.69
2018-11-22T07:32:03.024Z,46.92
2018-11-22T07:33:03.004Z,46.59
2018-11-22T07:34:03.060Z,46.69
2018-11-22T07:35:03.029Z,46.69
2018-11-22T07:36:03.027Z,46.49
2018-11-22T07:37:02.958Z,46.61
2018-11-22T07:38:02.945Z,46.69
2018-11-22T07:39:03.049Z,46.61
2018-11-22T07:40:02.921Z,46.69
2018-11-22T07:41:02.912Z,46.81
2018-11-22T07:42:02.897Z,46.80
2018-11-22T07:43:02.940Z,46.80
2018-11-22T07:44:02.905Z,46.41
2018-11-22T07:45:02.865Z,46.80
2018-11-22T07:46:02.852Z,47.30
2018-11-22T07:47:02.842Z,47.39
2018-11-22T07:48:02.945Z,46.59
2018-11-22T07:49:02.819Z,46.69
2018-11-22T07:50:02.811Z,47.30
2018-11-22T07:51:02.796Z,47.32
2018-11-22T07:52:02.789Z,47.30
2018-11-22T07:53:02.805Z,47.09
2018-11-22T07:54:02.761Z,47.32
2018-11-22T07:55:02.752Z,47.09
2018-11-22T07:56:02.737Z,47.19
2018-11-22T07:57:02.725Z,47.19
2018-11-22T07:58:02.739Z,46.80
2018-11-22T07:59:02.708Z,46.89
2018-11-22T08:00:02.692Z,46.81
2018-11-22T08:01:02.684Z,46.80
2018-11-22T08:02:02.671Z,46.89
2018-11-22T08:03:02.703Z,46.80
2018-11-22T08:04:02.651Z,47.00
2018-11-22T08:05:02.641Z,46.89
2018-11-22T08:06:02.625Z,47.09
2018-11-22T08:07:02.615Z,47.00
2018-11-22T08:08:02.644Z,46.89
2018-11-22T08:09:02.592Z,46.89
2018-11-22T08:10:02.579Z,46.89
2018-11-22T08:11:02.571Z,46.69
2018-11-22T08:12:02.562Z,47.09
2018-11-22T08:13:02.584Z,46.89
2018-11-22T08:14:02.535Z,46.69
2018-11-22T08:15:02.523Z,46.69
2018-11-22T08:16:02.511Z,46.49
2018-11-22T08:17:02.510Z,47.09
2018-11-22T08:18:02.523Z,46.69
2018-11-22T08:19:02.477Z,47.19
2018-11-22T08:20:02.466Z,46.69
2018-11-22T08:21:04.854Z,46.80
2018-11-22T08:22:02.444Z,46.69
2018-11-22T08:23:02.468Z,46.80
2018-11-22T08:24:02.466Z,46.69
2018-11-22T08:25:02.409Z,46.69
2018-11-22T08:26:02.399Z,46.29
2018-11-22T08:27:02.388Z,46.59
2018-11-22T08:28:02.409Z,46.69
2018-11-22T08:29:02.367Z,46.49
2018-11-22T08:30:02.359Z,46.29
2018-11-22T08:31:03.075Z,46.69
2018-11-22T08:32:02.331Z,46.27
2018-11-22T08:33:02.440Z,46.29
2018-11-22T08:34:02.310Z,46.49
2018-11-22T08:35:02.304Z,46.27
2018-11-22T08:36:02.286Z,46.29
2018-11-22T08:37:02.273Z,46.27
2018-11-22T08:38:02.287Z,46.59
2018-11-22T08:39:02.275Z,46.49
2018-11-22T08:40:02.243Z,46.27
2018-11-22T08:41:02.251Z,46.37
2018-11-22T08:42:02.220Z,46.49
2018-11-22T08:43:02.214Z,46.47
2018-11-22T08:44:02.193Z,46.29
2018-11-22T08:45:02.207Z,46.17
2018-11-22T08:46:02.172Z,46.27
2018-11-22T08:47:02.279Z,46.77
2018-11-22T08:48:02.156Z,46.47
2018-11-22T08:49:02.189Z,46.57
2018-11-22T08:50:02.127Z,46.47
2018-11-22T08:51:02.115Z,45.97
2018-11-22T08:52:02.130Z,46.77
2018-11-22T08:53:02.092Z,46.57
2018-11-22T08:54:02.080Z,45.97
2018-11-22T08:55:02.074Z,45.87
2018-11-22T08:56:02.058Z,46.27
2018-11-22T08:57:02.076Z,46.47
2018-11-22T08:58:02.040Z,46.37
2018-11-22T08:59:02.031Z,46.47
2018-11-22T09:00:02.013Z,45.97
2018-11-22T09:01:02.002Z,45.97
2018-11-22T09:02:02.024Z,46.47
2018-11-22T09:03:02.090Z,46.47
2018-11-22T09:04:01.966Z,45.97
2018-11-22T09:05:01.954Z,46.47
2018-11-22T09:06:01.943Z,45.97
2018-11-22T09:07:01.958Z,46.07
2018-11-22T09:08:01.922Z,46.15
2018-11-22T09:09:01.909Z,46.17
2018-11-22T09:10:02.448Z,46.47
2018-11-22T09:11:01.914Z,46.17
2018-11-22T09:12:01.877Z,45.87
2018-11-22T09:13:01.889Z,45.87
2018-11-22T09:14:01.856Z,46.04
2018-11-22T09:15:01.869Z,46.17
2018-11-22T09:16:01.830Z,45.84
2018-11-22T09:17:01.823Z,46.04
2018-11-22T09:18:01.806Z,45.84
2018-11-22T09:19:01.828Z,46.17
2018-11-22T09:20:01.803Z,46.35
2018-11-22T09:21:01.781Z,45.87
2018-11-22T09:22:01.762Z,46.04
2018-11-22T09:23:01.776Z,45.95
2018-11-22T09:24:01.741Z,46.15
2018-11-22T09:25:01.763Z,45.87
2018-11-22T09:26:01.721Z,46.04
2018-11-22T09:27:01.705Z,46.15
2018-11-22T09:28:01.694Z,46.25
2018-11-22T09:29:01.688Z,46.15
2018-11-22T09:30:01.703Z,46.15
2018-11-22T09:31:01.661Z,45.84
2018-11-22T09:32:01.651Z,45.87
2018-11-22T09:33:01.638Z,46.15
2018-11-22T09:34:01.655Z,46.35
2018-11-22T09:35:01.647Z,46.37
2018-11-22T09:36:01.629Z,45.84
2018-11-22T09:37:01.594Z,46.25
2018-11-22T09:38:01.580Z,46.17
2018-11-22T09:39:01.575Z,45.95
2018-11-22T09:40:01.561Z,46.25
2018-11-22T09:41:01.571Z,46.15
2018-11-22T09:42:01.540Z,46.55
2018-11-22T09:43:01.524Z,46.04
2018-11-22T09:44:01.535Z,46.04
2018-11-22T09:45:01.504Z,46.15
2018-11-22T09:46:01.523Z,46.25
2018-11-22T09:47:01.478Z,46.25
2018-11-22T09:48:01.467Z,46.25
2018-11-22T09:49:01.458Z,45.84
2018-11-22T09:50:01.444Z,46.15
2018-11-22T09:51:01.466Z,46.15
2018-11-22T09:52:01.426Z,45.84
2018-11-22T09:53:01.414Z,46.04
2018-11-22T09:54:01.399Z,45.84
2018-11-22T09:55:01.390Z,46.15
2018-11-22T09:56:01.403Z,46.25
2018-11-22T09:57:01.390Z,46.04
2018-11-22T09:58:01.851Z,46.04
2018-11-22T09:59:01.349Z,46.04
2018-11-22T10:00:01.334Z,45.84
2018-11-22T10:01:01.345Z,46.15
2018-11-22T10:02:01.352Z,46.04
2018-11-22T10:03:01.346Z,46.25
2018-11-22T10:04:01.288Z,46.35
2018-11-22T10:05:01.502Z,46.15
2018-11-22T10:06:01.263Z,45.84
2018-11-22T10:07:01.253Z,45.92
2018-11-22T10:08:01.269Z,46.15
2018-11-22T10:09:01.238Z,46.42
2018-11-22T10:10:01.218Z,45.72
2018-11-22T10:11:01.237Z,46.04
2018-11-22T10:12:01.202Z,45.83
2018-11-22T10:13:01.243Z,46.12
2018-11-22T10:14:01.174Z,46.62
2018-11-22T10:15:01.161Z,45.95
2018-11-22T10:16:01.150Z,46.45
2018-11-22T10:17:01.242Z,46.35
2018-11-22T10:18:01.135Z,46.73
2018-11-22T10:19:01.117Z,46.42
2018-11-22T10:20:01.107Z,46.73
2018-11-22T10:21:01.094Z,46.42
2018-11-22T10:22:01.107Z,46.23
2018-11-22T10:23:01.073Z,46.73
2018-11-22T10:24:01.096Z,46.12
2018-11-22T10:25:01.076Z,46.53
2018-11-22T10:26:01.037Z,46.33
2018-11-22T10:27:01.035Z,46.33
2018-11-22T10:28:01.017Z,46.53
2018-11-22T10:29:01.029Z,46.33
2018-11-22T10:30:01.034Z,46.62
2018-11-22T10:31:00.981Z,46.62
2018-11-22T10:32:01.014Z,46.62
2018-11-22T10:33:00.968Z,46.62
2018-11-22T10:34:00.960Z,46.53
2018-11-22T10:35:00.939Z,47.13
2018-11-22T10:36:00.958Z,46.62
2018-11-22T10:37:00.919Z,46.73
2018-11-22T10:38:00.997Z,46.73
2018-11-22T10:39:00.900Z,47.03
2018-11-22T10:40:00.879Z,46.73
2018-11-22T10:41:00.894Z,46.62
2018-11-22T10:42:00.858Z,46.83
2018-11-22T10:43:00.846Z,46.83
2018-11-22T10:44:00.837Z,46.83
2018-11-22T10:45:00.887Z,46.93
2018-11-22T10:46:00.920Z,46.93
2018-11-22T10:47:00.802Z,47.03
2018-11-22T10:48:00.795Z,46.73
2018-11-22T10:49:00.817Z,47.03
2018-11-22T10:50:00.771Z,47.03
2018-11-22T10:51:00.757Z,47.03
2018-11-22T10:52:00.753Z,47.03
2018-11-22T10:53:00.741Z,47.23
2018-11-22T10:54:00.777Z,46.53
2018-11-22T10:55:00.742Z,46.83
2018-11-22T10:56:00.700Z,46.53
2018-11-22T10:57:00.688Z,46.55
2018-11-22T10:58:00.678Z,46.62
2018-11-22T10:59:00.700Z,46.53
2018-11-22T11:00:00.654Z,46.73
2018-11-22T11:01:00.699Z,46.33
2018-11-22T11:02:00.637Z,46.53
2018-11-22T11:03:00.621Z,46.62
2018-11-22T11:04:00.677Z,46.73
2018-11-22T11:05:00.598Z,46.75
2018-11-22T11:06:00.617Z,47.03
2018-11-22T11:07:00.578Z,47.03
2018-11-22T11:08:02.594Z,46.53
2018-11-22T11:09:00.552Z,47.03
2018-11-22T11:10:00.546Z,47.03
2018-11-22T11:11:00.566Z,46.93
2018-11-22T11:12:00.558Z,47.03
2018-11-22T11:13:00.525Z,46.95
2018-11-22T11:14:00.498Z,46.62
2018-11-22T11:15:00.489Z,47.33
2018-11-22T11:16:00.498Z,46.85
2018-11-22T11:17:00.465Z,46.93
2018-11-22T11:18:00.480Z,46.73
2018-11-22T11:19:00.440Z,46.65
2018-11-22T11:20:00.429Z,46.83
2018-11-22T11:21:00.420Z,46.75
2018-11-22T11:22:00.445Z,46.73
2018-11-22T11:23:00.395Z,46.83
2018-11-22T11:24:00.384Z,46.83
2018-11-22T11:25:00.372Z,46.95
2018-11-22T11:26:00.363Z,46.93
2018-11-22T11:27:00.392Z,47.03
2018-11-22T11:28:00.351Z,46.93
2018-11-22T11:29:00.328Z,47.43
2018-11-22T11:30:00.317Z,46.93
2018-11-22T11:31:00.305Z,47.03
2018-11-22T11:32:00.320Z,47.33
2018-11-22T11:33:00.352Z,47.23
2018-11-22T11:34:00.273Z,47.43
2018-11-22T11:35:00.259Z,47.23
2018-11-22T11:36:00.248Z,47.23
2018-11-22T11:37:00.237Z,47.13
2018-11-22T11:38:00.252Z,47.23
2018-11-22T11:39:00.215Z,47.13
2018-11-22T11:40:00.645Z,47.23
2018-11-22T11:41:00.191Z,47.13
2018-11-22T11:42:00.182Z,47.23
2018-11-22T11:43:00.197Z,47.23
2018-11-22T11:44:00.158Z,47.23
2018-11-22T11:45:00.148Z,47.13
2018-11-22T11:46:00.137Z,47.23
2018-11-22T11:47:00.123Z,47.23
2018-11-22T11:48:00.137Z,47.53
2018-11-22T11:49:00.103Z,46.93
2018-11-22T11:50:00.092Z,47.23
2018-11-22T11:51:00.079Z,47.23
2018-11-22T11:52:00.098Z,47.33
2018-11-22T11:53:00.093Z,47.33
2018-11-22T11:54:00.069Z,47.23
2018-11-22T11:55:00.038Z,46.93
2018-11-22T11:56:00.036Z,47.23
2018-11-22T11:57:00.042Z,46.93
2018-11-22T11:58:00.014Z,47.23
2018-11-22T11:58:59.992Z,47.33
2018-11-22T12:00:00.006Z,47.03
2018-11-22T12:00:59.967Z,47.23
2018-11-22T12:01:59.954Z,47.43
2018-11-22T12:02:59.976Z,47.43
2018-11-22T12:03:59.932Z,47.43
2018-11-22T12:04:59.921Z,47.43
2018-11-22T12:05:59.947Z,47.43
2018-11-22T12:06:59.898Z,47.43
2018-11-22T12:07:59.917Z,47.53
2018-11-22T12:08:59.875Z,47.73
2018-11-22T12:09:59.863Z,47.23
2018-11-22T12:10:59.883Z,47.73
2018-11-22T12:11:59.842Z,47.23
2018-11-22T12:12:59.832Z,47.73
2018-11-22T12:13:59.818Z,47.63
2018-11-22T12:14:59.807Z,47.63
2018-11-22T12:15:59.825Z,47.63
2018-11-22T12:16:59.787Z,47.73
2018-11-22T12:17:59.776Z,47.63
2018-11-22T12:18:59.764Z,47.73
2018-11-22T12:19:59.777Z,47.73
2018-11-22T12:20:59.743Z,47.73
2018-11-22T12:21:59.732Z,47.33
2018-11-22T12:22:59.761Z,47.63
2018-11-22T12:23:59.708Z,47.73
2018-11-22T12:24:59.754Z,47.33
2018-11-22T12:25:59.717Z,47.73
2018-11-22T12:26:59.676Z,47.75
2018-11-22T12:27:59.665Z,47.83
2018-11-22T12:28:59.650Z,47.45
2018-11-22T12:29:59.640Z,47.73
2018-11-22T12:31:06.395Z,47.33
2018-11-22T12:32:00.618Z,47.73
2018-11-22T12:32:59.688Z,47.35
2018-11-22T12:33:59.594Z,47.55
2018-11-22T12:34:59.583Z,47.73
2018-11-22T12:35:59.604Z,47.23
2018-11-22T12:36:59.572Z,47.53
2018-11-22T12:37:59.581Z,47.43
2018-11-22T12:38:59.538Z,47.65
2018-11-22T12:39:59.528Z,47.53
2018-11-22T12:40:59.515Z,47.53
2018-11-22T12:41:59.505Z,47.65
2018-11-22T12:42:59.521Z,47.45
2018-11-22T12:43:59.512Z,47.25
2018-11-22T12:44:59.470Z,47.65
2018-11-22T12:45:59.458Z,47.33
2018-11-22T12:46:59.447Z,47.83
2018-11-22T12:47:59.483Z,47.65
2018-11-22T12:48:59.427Z,47.65
2018-11-22T12:49:59.424Z,47.85
2018-11-22T12:50:59.401Z,47.35
2018-11-22T12:51:59.391Z,47.35